Manor, Canada
Current Conditions -  °F | °C
As of 2:00 PM on Friday 24 Oct 2014 (Local Time) from CYEN Reporting Station
Scattered Clouds Scattered Clouds  
Wind Chill: 61°   Ceiling: Unl
Heat Index: 61°   Visibility: 15mi
Dew Point: 34°   Wind: 21mph
Humidity: 36%   Direction: 290°WNW
Pressure: 29.85"   Gusts: 31mph
Location:  49.6°N, 102.08°W
Report Text: CYEN 242000Z 29018G27KT 15SM FEW150 SCT250 16/01 A2985 RMKAC2CI0 SLP118
Loading
Personal Weather Stations






























Interactive Weather Map
Tropical Storm Tracking
New forecast layout! Learn more

10-Day Weather Forecast

Advertisements
Track Severe Weather on mobile